sensor_id;sensor_type;location;lat;lon;timestamp;P1;durP1;ratioP1;P2;durP2;ratioP2
5981;SDS011;3018;48.730;9.336;2023-05-13T00:01:43;2.20;;;2.10;;
5981;SDS011;3018;48.730;9.336;2023-05-13T00:04:09;2.10;;;2.00;;
5981;SDS011;3018;48.730;9.336;2023-05-13T00:06:36;3.85;;;2.05;;
5981;SDS011;3018;48.730;9.336;2023-05-13T00:09:03;2.63;;;2.42;;
5981;SDS011;3018;48.730;9.336;2023-05-13T00:11:29;2.50;;;2.40;;
5981;SDS011;3018;48.730;9.336;2023-05-13T00:13:55;2.50;;;2.30;;
5981;SDS011;3018;48.730;9.336;2023-05-13T00:16:23;2.33;;;2.22;;
5981;SDS011;3018;48.730;9.336;2023-05-13T00:18:51;2.97;;;2.42;;
5981;SDS011;3018;48.730;9.336;2023-05-13T00:21:17;2.97;;;2.67;;
5981;SDS011;3018;48.730;9.336;2023-05-13T00:23:44;3.28;;;2.35;;
5981;SDS011;3018;48.730;9.336;2023-05-13T00:26:10;2.28;;;2.13;;
5981;SDS011;3018;48.730;9.336;2023-05-13T00:28:36;2.42;;;2.22;;
5981;SDS011;3018;48.730;9.336;2023-05-13T00:31:02;2.65;;;2.30;;
5981;SDS011;3018;48.730;9.336;2023-05-13T00:33:30;2.63;;;2.42;;
5981;SDS011;3018;48.730;9.336;2023-05-13T00:35:56;2.15;;;2.05;;
5981;SDS011;3018;48.730;9.336;2023-05-13T00:38:23;2.53;;;2.33;;
5981;SDS011;3018;48.730;9.336;2023-05-13T00:40:49;2.60;;;2.40;;
5981;SDS011;3018;48.730;9.336;2023-05-13T00:43:15;3.53;;;2.22;;
5981;SDS011;3018;48.730;9.336;2023-05-13T00:45:42;2.50;;;2.28;;
5981;SDS011;3018;48.730;9.336;2023-05-13T00:48:08;2.40;;;2.20;;
5981;SDS011;3018;48.730;9.336;2023-05-13T00:50:36;3.00;;;2.50;;
5981;SDS011;3018;48.730;9.336;2023-05-13T00:53:02;2.50;;;2.40;;
5981;SDS011;3018;48.730;9.336;2023-05-13T00:55:28;2.22;;;2.00;;
5981;SDS011;3018;48.730;9.336;2023-05-13T00:57:55;2.60;;;2.22;;
5981;SDS011;3018;48.730;9.336;2023-05-13T01:00:21;2.80;;;2.60;;
5981;SDS011;3018;48.730;9.336;2023-05-13T01:02:49;2.63;;;2.42;;
5981;SDS011;3018;48.730;9.336;2023-05-13T01:05:19;2.53;;;2.40;;
5981;SDS011;3018;48.730;9.336;2023-05-13T01:07:51;2.45;;;2.33;;
5981;SDS011;3018;48.730;9.336;2023-05-13T01:10:22;2.13;;;2.03;;
5981;SDS011;3018;48.730;9.336;2023-05-13T01:12:51;2.20;;;2.10;;
5981;SDS011;3018;48.730;9.336;2023-05-13T01:15:19;2.00;;;1.90;;
5981;SDS011;3018;48.730;9.336;2023-05-13T01:17:48;3.17;;;2.00;;
5981;SDS011;3018;48.730;9.336;2023-05-13T01:20:15;2.60;;;2.50;;
5981;SDS011;3018;48.730;9.336;2023-05-13T01:22:44;2.42;;;2.33;;
5981;SDS011;3018;48.730;9.336;2023-05-13T01:25:11;2.47;;;2.15;;
5981;SDS011;3018;48.730;9.336;2023-05-13T01:27:37;2.20;;;2.10;;
5981;SDS011;3018;48.730;9.336;2023-05-13T01:30:04;2.28;;;2.10;;
5981;SDS011;3018;48.730;9.336;2023-05-13T01:32:31;2.38;;;1.95;;
5981;SDS011;3018;48.730;9.336;2023-05-13T01:34:57;2.70;;;2.60;;
5981;SDS011;3018;48.730;9.336;2023-05-13T01:37:24;2.80;;;2.70;;
5981;SDS011;3018;48.730;9.336;2023-05-13T01:39:52;2.42;;;2.42;;
5981;SDS011;3018;48.730;9.336;2023-05-13T01:42:18;4.68;;;2.40;;
5981;SDS011;3018;48.730;9.336;2023-05-13T01:44:44;2.47;;;2.38;;
5981;SDS011;3018;48.730;9.336;2023-05-13T01:47:11;2.67;;;2.45;;
5981;SDS011;3018;48.730;9.336;2023-05-13T01:49:37;5.13;;;2.40;;
5981;SDS011;3018;48.730;9.336;2023-05-13T01:52:03;2.60;;;2.50;;
5981;SDS011;3018;48.730;9.336;2023-05-13T01:54:29;5.35;;;2.00;;
5981;SDS011;3018;48.730;9.336;2023-05-13T01:56:57;2.28;;;2.17;;
5981;SDS011;3018;48.730;9.336;2023-05-13T01:59:23;2.40;;;2.30;;
5981;SDS011;3018;48.730;9.336;2023-05-13T02:01:50;2.05;;;1.95;;
5981;SDS011;3018;48.730;9.336;2023-05-13T02:04:16;2.35;;;2.13;;
5981;SDS011;3018;48.730;9.336;2023-05-13T02:06:42;2.08;;;1.98;;
5981;SDS011;3018;48.730;9.336;2023-05-13T02:09:08;2.70;;;2.10;;
5981;SDS011;3018;48.730;9.336;2023-05-13T02:11:35;2.22;;;2.13;;
5981;SDS011;3018;48.730;9.336;2023-05-13T02:14:02;3.92;;;2.33;;
5981;SDS011;3018;48.730;9.336;2023-05-13T02:16:29;2.22;;;2.00;;
5981;SDS011;3018;48.730;9.336;2023-05-13T02:18:56;2.13;;;2.10;;
5981;SDS011;3018;48.730;9.336;2023-05-13T02:21:22;1.98;;;1.98;;
5981;SDS011;3018;48.730;9.336;2023-05-13T02:23:48;3.55;;;1.92;;
5981;SDS011;3018;48.730;9.336;2023-05-13T02:26:15;3.60;;;1.83;;
5981;SDS011;3018;48.730;9.336;2023-05-13T02:28:41;4.97;;;1.90;;
5981;SDS011;3018;48.730;9.336;2023-05-13T02:31:08;2.70;;;1.77;;
5981;SDS011;3018;48.730;9.336;2023-05-13T02:33:35;2.00;;;1.88;;
5981;SDS011;3018;48.730;9.336;2023-05-13T02:36:01;2.08;;;1.70;;
5981;SDS011;3018;48.730;9.336;2023-05-13T02:38:27;1.80;;;1.80;;
5981;SDS011;3018;48.730;9.336;2023-05-13T02:40:53;2.10;;;2.00;;
5981;SDS011;3018;48.730;9.336;2023-05-13T02:43:20;2.08;;;2.03;;
5981;SDS011;3018;48.730;9.336;2023-05-13T02:45:47;1.75;;;1.65;;
5981;SDS011;3018;48.730;9.336;2023-05-13T02:48:15;3.05;;;1.67;;
5981;SDS011;3018;48.730;9.336;2023-05-13T02:50:41;2.67;;;1.98;;
5981;SDS011;3018;48.730;9.336;2023-05-13T02:53:07;2.22;;;1.88;;
5981;SDS011;3018;48.730;9.336;2023-05-13T02:55:33;1.65;;;1.65;;
5981;SDS011;3018;48.730;9.336;2023-05-13T02:58:00;1.80;;;1.80;;
5981;SDS011;3018;48.730;9.336;2023-05-13T03:00:26;2.67;;;1.80;;
5981;SDS011;3018;48.730;9.336;2023-05-13T03:02:52;2.75;;;1.58;;
5981;SDS011;3018;48.730;9.336;2023-05-13T03:05:20;1.83;;;1.73;;
5981;SDS011;3018;48.730;9.336;2023-05-13T03:07:46;1.75;;;1.65;;
5981;SDS011;3018;48.730;9.336;2023-05-13T03:10:12;2.75;;;1.85;;
5981;SDS011;3018;48.730;9.336;2023-05-13T03:12:39;1.80;;;1.80;;
5981;SDS011;3018;48.730;9.336;2023-05-13T03:15:05;6.18;;;1.70;;
5981;SDS011;3018;48.730;9.336;2023-05-13T03:17:32;2.10;;;2.00;;
5981;SDS011;3018;48.730;9.336;2023-05-13T03:19:58;1.60;;;1.60;;
5981;SDS011;3018;48.730;9.336;2023-05-13T03:22:25;1.60;;;1.55;;
5981;SDS011;3018;48.730;9.336;2023-05-13T03:24:52;5.57;;;1.60;;
5981;SDS011;3018;48.730;9.336;2023-05-13T03:27:18;1.60;;;1.60;;
5981;SDS011;3018;48.730;9.336;2023-05-13T03:29:44;1.70;;;1.65;;
5981;SDS011;3018;48.730;9.336;2023-05-13T03:32:11;2.20;;;2.10;;
5981;SDS011;3018;48.730;9.336;2023-05-13T03:34:37;2.10;;;2.00;;
5981;SDS011;3018;48.730;9.336;2023-05-13T03:37:03;1.85;;;1.85;;
5981;SDS011;3018;48.730;9.336;2023-05-13T03:39:31;2.60;;;1.95;;
5981;SDS011;3018;48.730;9.336;2023-05-13T03:41:57;1.85;;;1.77;;
5981;SDS011;3018;48.730;9.336;2023-05-13T03:44:24;2.50;;;1.80;;
5981;SDS011;3018;48.730;9.336;2023-05-13T03:46:50;2.22;;;2.17;;
5981;SDS011;3018;48.730;9.336;2023-05-13T03:49:16;1.80;;;1.52;;
5981;SDS011;3018;48.730;9.336;2023-05-13T03:51:43;3.35;;;2.03;;
5981;SDS011;3018;48.730;9.336;2023-05-13T03:54:09;1.75;;;1.75;;
5981;SDS011;3018;48.730;9.336;2023-05-13T03:56:36;1.77;;;1.73;;
5981;SDS011;3018;48.730;9.336;2023-05-13T03:59:03;3.13;;;1.60;;
5981;SDS011;3018;48.730;9.336;2023-05-13T04:01:29;1.67;;;1.58;;
5981;SDS011;3018;48.730;9.336;2023-05-13T04:03:55;2.33;;;2.13;;
5981;SDS011;3018;48.730;9.336;2023-05-13T04:06:21;1.85;;;1.85;;
5981;SDS011;3018;48.730;9.336;2023-05-13T04:08:49;3.33;;;2.17;;
5981;SDS011;3018;48.730;9.336;2023-05-13T04:11:15;2.15;;;1.95;;
5981;SDS011;3018;48.730;9.336;2023-05-13T04:13:43;1.83;;;1.73;;
5981;SDS011;3018;48.730;9.336;2023-05-13T04:16:10;1.85;;;1.75;;
5981;SDS011;3018;48.730;9.336;2023-05-13T04:18:36;2.03;;;1.92;;
5981;SDS011;3018;48.730;9.336;2023-05-13T04:21:04;1.90;;;1.80;;
5981;SDS011;3018;48.730;9.336;2023-05-13T04:23:31;4.47;;;2.25;;
5981;SDS011;3018;48.730;9.336;2023-05-13T04:25:57;2.10;;;1.98;;
5981;SDS011;3018;48.730;9.336;2023-05-13T04:28:23;5.03;;;2.00;;
5981;SDS011;3018;48.730;9.336;2023-05-13T04:30:51;4.00;;;2.00;;
5981;SDS011;3018;48.730;9.336;2023-05-13T04:33:18;1.83;;;1.80;;
5981;SDS011;3018;48.730;9.336;2023-05-13T04:35:45;1.85;;;1.75;;
5981;SDS011;3018;48.730;9.336;2023-05-13T04:38:11;5.60;;;2.13;;
5981;SDS011;3018;48.730;9.336;2023-05-13T04:40:37;1.90;;;1.80;;
5981;SDS011;3018;48.730;9.336;2023-05-13T04:43:03;2.10;;;1.88;;
5981;SDS011;3018;48.730;9.336;2023-05-13T04:45:30;2.67;;;2.45;;
5981;SDS011;3018;48.730;9.336;2023-05-13T04:47:58;2.28;;;2.17;;
5981;SDS011;3018;48.730;9.336;2023-05-13T04:50:24;2.28;;;2.28;;
5981;SDS011;3018;48.730;9.336;2023-05-13T04:52:50;2.70;;;2.20;;
5981;SDS011;3018;48.730;9.336;2023-05-13T04:55:18;2.28;;;2.10;;
5981;SDS011;3018;48.730;9.336;2023-05-13T04:57:44;2.00;;;1.90;;
5981;SDS011;3018;48.730;9.336;2023-05-13T05:00:11;2.15;;;2.10;;
5981;SDS011;3018;48.730;9.336;2023-05-13T05:02:38;2.25;;;2.13;;
5981;SDS011;3018;48.730;9.336;2023-05-13T05:05:06;5.35;;;2.47;;
5981;SDS011;3018;48.730;9.336;2023-05-13T05:07:32;2.30;;;2.10;;
5981;SDS011;3018;48.730;9.336;2023-05-13T05:09:59;2.22;;;2.13;;
5981;SDS011;3018;48.730;9.336;2023-05-13T05:12:25;3.03;;;2.25;;
5981;SDS011;3018;48.730;9.336;2023-05-13T05:14:51;2.58;;;2.38;;
5981;SDS011;3018;48.730;9.336;2023-05-13T05:17:17;3.05;;;2.63;;
5981;SDS011;3018;48.730;9.336;2023-05-13T05:19:44;2.53;;;2.42;;
5981;SDS011;3018;48.730;9.336;2023-05-13T05:22:11;2.78;;;2.13;;
5981;SDS011;3018;48.730;9.336;2023-05-13T05:24:37;3.22;;;2.47;;
5981;SDS011;3018;48.730;9.336;2023-05-13T05:27:04;6.63;;;1.90;;
5981;SDS011;3018;48.730;9.336;2023-05-13T05:29:31;3.67;;;2.38;;
5981;SDS011;3018;48.730;9.336;2023-05-13T05:31:57;2.30;;;2.20;;
5981;SDS011;3018;48.730;9.336;2023-05-13T05:34:23;2.45;;;2.25;;
5981;SDS011;3018;48.730;9.336;2023-05-13T05:36:49;2.78;;;2.33;;
5981;SDS011;3018;48.730;9.336;2023-05-13T05:39:17;3.13;;;2.85;;
5981;SDS011;3018;48.730;9.336;2023-05-13T05:41:43;2.90;;;2.70;;
5981;SDS011;3018;48.730;9.336;2023-05-13T05:44:11;2.38;;;2.35;;
5981;SDS011;3018;48.730;9.336;2023-05-13T05:46:38;2.55;;;2.30;;
5981;SDS011;3018;48.730;9.336;2023-05-13T05:49:04;2.80;;;2.60;;
5981;SDS011;3018;48.730;9.336;2023-05-13T05:51:32;2.70;;;2.45;;
5981;SDS011;3018;48.730;9.336;2023-05-13T05:53:58;3.78;;;2.22;;
5981;SDS011;3018;48.730;9.336;2023-05-13T05:56:26;2.55;;;2.40;;
5981;SDS011;3018;48.730;9.336;2023-05-13T05:58:52;3.10;;;2.92;;
5981;SDS011;3018;48.730;9.336;2023-05-13T06:01:18;2.97;;;2.80;;
5981;SDS011;3018;48.730;9.336;2023-05-13T06:03:44;2.40;;;2.20;;
5981;SDS011;3018;48.730;9.336;2023-05-13T06:06:11;2.63;;;2.47;;
5981;SDS011;3018;48.730;9.336;2023-05-13T06:08:37;2.42;;;2.42;;
5981;SDS011;3018;48.730;9.336;2023-05-13T06:11:03;3.70;;;2.58;;
5981;SDS011;3018;48.730;9.336;2023-05-13T06:13:31;2.95;;;2.53;;
5981;SDS011;3018;48.730;9.336;2023-05-13T06:15:57;3.63;;;3.00;;
5981;SDS011;3018;48.730;9.336;2023-05-13T06:18:24;2.88;;;2.53;;
5981;SDS011;3018;48.730;9.336;2023-05-13T06:20:50;2.90;;;2.75;;
5981;SDS011;3018;48.730;9.336;2023-05-13T06:23:16;3.45;;;3.22;;
5981;SDS011;3018;48.730;9.336;2023-05-13T06:25:43;4.75;;;3.10;;
5981;SDS011;3018;48.730;9.336;2023-05-13T06:28:10;3.13;;;2.92;;
5981;SDS011;3018;48.730;9.336;2023-05-13T06:30:38;3.00;;;2.67;;
5981;SDS011;3018;48.730;9.336;2023-05-13T06:33:04;2.90;;;2.70;;
5981;SDS011;3018;48.730;9.336;2023-05-13T06:35:32;2.80;;;2.60;;
5981;SDS011;3018;48.730;9.336;2023-05-13T06:37:58;3.20;;;2.65;;
5981;SDS011;3018;48.730;9.336;2023-05-13T06:40:24;3.13;;;2.92;;
5981;SDS011;3018;48.730;9.336;2023-05-13T06:42:51;4.80;;;2.50;;
5981;SDS011;3018;48.730;9.336;2023-05-13T06:45:17;3.10;;;2.90;;
5981;SDS011;3018;48.730;9.336;2023-05-13T06:47:48;2.90;;;2.70;;
5981;SDS011;3018;48.730;9.336;2023-05-13T06:50:15;3.03;;;2.83;;
5981;SDS011;3018;48.730;9.336;2023-05-13T06:52:41;3.00;;;2.90;;
5981;SDS011;3018;48.730;9.336;2023-05-13T06:55:08;3.22;;;2.60;;
5981;SDS011;3018;48.730;9.336;2023-05-13T06:57:34;3.90;;;2.88;;
5981;SDS011;3018;48.730;9.336;2023-05-13T07:00:01;3.70;;;2.85;;
5981;SDS011;3018;48.730;9.336;2023-05-13T07:02:28;2.75;;;2.55;;
5981;SDS011;3018;48.730;9.336;2023-05-13T07:04:55;3.17;;;2.83;;
5981;SDS011;3018;48.730;9.336;2023-05-13T07:07:21;2.67;;;2.47;;
5981;SDS011;3018;48.730;9.336;2023-05-13T07:09:48;5.15;;;3.15;;
5981;SDS011;3018;48.730;9.336;2023-05-13T07:12:14;2.67;;;2.45;;
5981;SDS011;3018;48.730;9.336;2023-05-13T07:14:40;2.72;;;2.58;;
5981;SDS011;3018;48.730;9.336;2023-05-13T07:17:09;3.70;;;3.50;;
5981;SDS011;3018;48.730;9.336;2023-05-13T07:19:35;4.28;;;3.35;;
5981;SDS011;3018;48.730;9.336;2023-05-13T07:22:03;3.78;;;3.42;;
5981;SDS011;3018;48.730;9.336;2023-05-13T07:24:29;3.90;;;3.60;;
5981;SDS011;3018;48.730;9.336;2023-05-13T07:26:55;6.50;;;3.97;;
5981;SDS011;3018;48.730;9.336;2023-05-13T07:29:21;4.80;;;3.90;;
5981;SDS011;3018;48.730;9.336;2023-05-13T07:31:48;4.43;;;4.13;;
5981;SDS011;3018;48.730;9.336;2023-05-13T07:34:14;6.20;;;3.88;;
5981;SDS011;3018;48.730;9.336;2023-05-13T07:36:40;3.78;;;3.40;;
5981;SDS011;3018;48.730;9.336;2023-05-13T07:39:08;4.30;;;3.95;;
5981;SDS011;3018;48.730;9.336;2023-05-13T07:41:34;3.85;;;3.35;;
5981;SDS011;3018;48.730;9.336;2023-05-13T07:44:01;4.60;;;3.55;;
5981;SDS011;3018;48.730;9.336;2023-05-13T07:46:27;7.43;;;3.67;;
5981;SDS011;3018;48.730;9.336;2023-05-13T07:48:53;4.22;;;3.88;;
5981;SDS011;3018;48.730;9.336;2023-05-13T07:51:19;4.35;;;3.58;;
5981;SDS011;3018;48.730;9.336;2023-05-13T07:53:46;3.70;;;3.40;;
5981;SDS011;3018;48.730;9.336;2023-05-13T07:56:13;4.03;;;3.67;;
5981;SDS011;3018;48.730;9.336;2023-05-13T07:58:40;3.00;;;2.90;;
5981;SDS011;3018;48.730;9.336;2023-05-13T08:01:06;3.28;;;2.97;;
5981;SDS011;3018;48.730;9.336;2023-05-13T08:03:32;3.25;;;2.35;;
5981;SDS011;3018;48.730;9.336;2023-05-13T08:05:59;5.90;;;3.15;;
5981;SDS011;3018;48.730;9.336;2023-05-13T08:08:25;3.78;;;2.58;;
5981;SDS011;3018;48.730;9.336;2023-05-13T08:10:51;3.05;;;2.85;;
5981;SDS011;3018;48.730;9.336;2023-05-13T08:13:19;2.75;;;2.55;;
5981;SDS011;3018;48.730;9.336;2023-05-13T08:15:45;2.95;;;2.78;;
5981;SDS011;3018;48.730;9.336;2023-05-13T08:18:12;3.35;;;3.10;;
5981;SDS011;3018;48.730;9.336;2023-05-13T08:20:38;3.00;;;2.80;;
5981;SDS011;3018;48.730;9.336;2023-05-13T08:23:04;3.67;;;3.38;;
5981;SDS011;3018;48.730;9.336;2023-05-13T08:25:31;3.67;;;3.22;;
5981;SDS011;3018;48.730;9.336;2023-05-13T08:27:57;3.25;;;3.10;;
5981;SDS011;3018;48.730;9.336;2023-05-13T08:30:25;3.25;;;2.80;;
5981;SDS011;3018;48.730;9.336;2023-05-13T08:32:51;3.40;;;3.10;;
5981;SDS011;3018;48.730;9.336;2023-05-13T08:35:17;3.28;;;3.03;;
5981;SDS011;3018;48.730;9.336;2023-05-13T08:37:43;3.90;;;3.38;;
5981;SDS011;3018;48.730;9.336;2023-05-13T08:40:10;3.83;;;3.25;;
5981;SDS011;3018;48.730;9.336;2023-05-13T08:42:37;3.15;;;2.95;;
5981;SDS011;3018;48.730;9.336;2023-05-13T08:45:04;3.45;;;3.10;;
5981;SDS011;3018;48.730;9.336;2023-05-13T08:47:35;3.75;;;3.45;;
5981;SDS011;3018;48.730;9.336;2023-05-13T08:50:05;3.17;;;3.08;;
5981;SDS011;3018;48.730;9.336;2023-05-13T08:52:31;3.30;;;3.08;;
5981;SDS011;3018;48.730;9.336;2023-05-13T08:54:58;3.38;;;3.17;;
5981;SDS011;3018;48.730;9.336;2023-05-13T08:57:24;5.72;;;3.00;;
5981;SDS011;3018;48.730;9.336;2023-05-13T08:59:50;3.70;;;3.40;;
5981;SDS011;3018;48.730;9.336;2023-05-13T09:02:16;5.13;;;2.60;;
5981;SDS011;3018;48.730;9.336;2023-05-13T09:04:44;3.17;;;2.80;;
5981;SDS011;3018;48.730;9.336;2023-05-13T09:07:11;4.18;;;3.40;;
5981;SDS011;3018;48.730;9.336;2023-05-13T09:09:37;3.25;;;3.05;;
5981;SDS011;3018;48.730;9.336;2023-05-13T09:12:04;2.95;;;2.72;;
5981;SDS011;3018;48.730;9.336;2023-05-13T09:14:31;4.07;;;2.97;;
5981;SDS011;3018;48.730;9.336;2023-05-13T09:16:57;4.75;;;2.90;;
5981;SDS011;3018;48.730;9.336;2023-05-13T09:19:23;3.35;;;3.05;;
5981;SDS011;3018;48.730;9.336;2023-05-13T09:21:52;5.35;;;3.35;;
5981;SDS011;3018;48.730;9.336;2023-05-13T09:24:18;4.20;;;2.92;;
5981;SDS011;3018;48.730;9.336;2023-05-13T09:26:46;3.72;;;3.42;;
5981;SDS011;3018;48.730;9.336;2023-05-13T09:29:19;3.35;;;2.78;;
5981;SDS011;3018;48.730;9.336;2023-05-13T09:31:47;4.10;;;2.90;;
5981;SDS011;3018;48.730;9.336;2023-05-13T09:34:13;2.60;;;2.50;;
5981;SDS011;3018;48.730;9.336;2023-05-13T09:36:40;2.72;;;2.63;;
5981;SDS011;3018;48.730;9.336;2023-05-13T09:39:08;4.47;;;2.70;;
5981;SDS011;3018;48.730;9.336;2023-05-13T09:41:36;3.00;;;2.80;;
5981;SDS011;3018;48.730;9.336;2023-05-13T09:44:03;3.13;;;2.75;;
5981;SDS011;3018;48.730;9.336;2023-05-13T09:46:29;2.80;;;2.50;;
5981;SDS011;3018;48.730;9.336;2023-05-13T09:48:56;3.00;;;2.42;;
5981;SDS011;3018;48.730;9.336;2023-05-13T09:51:24;3.35;;;2.30;;
5981;SDS011;3018;48.730;9.336;2023-05-13T09:53:50;3.33;;;2.40;;
5981;SDS011;3018;48.730;9.336;2023-05-13T09:56:20;2.95;;;2.75;;
5981;SDS011;3018;48.730;9.336;2023-05-13T09:58:49;3.25;;;2.70;;
5981;SDS011;3018;48.730;9.336;2023-05-13T10:01:16;2.47;;;2.40;;
5981;SDS011;3018;48.730;9.336;2023-05-13T10:03:42;3.03;;;2.75;;
5981;SDS011;3018;48.730;9.336;2023-05-13T10:06:08;2.60;;;2.50;;
5981;SDS011;3018;48.730;9.336;2023-05-13T10:08:35;2.80;;;2.70;;
5981;SDS011;3018;48.730;9.336;2023-05-13T10:11:03;5.78;;;2.58;;
5981;SDS011;3018;48.730;9.336;2023-05-13T10:13:31;2.00;;;1.90;;
5981;SDS011;3018;48.730;9.336;2023-05-13T10:15:59;2.00;;;1.90;;
5981;SDS011;3018;48.730;9.336;2023-05-13T10:18:25;2.00;;;1.90;;
5981;SDS011;3018;48.730;9.336;2023-05-13T10:20:52;1.75;;;1.65;;
5981;SDS011;3018;48.730;9.336;2023-05-13T10:23:19;2.47;;;2.00;;
5981;SDS011;3018;48.730;9.336;2023-05-13T10:25:46;2.47;;;1.80;;
5981;SDS011;3018;48.730;9.336;2023-05-13T10:28:13;1.65;;;1.63;;
5981;SDS011;3018;48.730;9.336;2023-05-13T10:30:41;2.25;;;2.15;;
5981;SDS011;3018;48.730;9.336;2023-05-13T10:33:08;2.63;;;2.42;;
5981;SDS011;3018;48.730;9.336;2023-05-13T10:35:35;2.50;;;2.40;;
5981;SDS011;3018;48.730;9.336;2023-05-13T10:38:02;2.42;;;2.33;;
5981;SDS011;3018;48.730;9.336;2023-05-13T10:40:43;2.50;;;2.33;;
5981;SDS011;3018;48.730;9.336;2023-05-13T10:43:16;2.00;;;1.90;;
5981;SDS011;3018;48.730;9.336;2023-05-13T10:45:44;2.13;;;1.92;;
5981;SDS011;3018;48.730;9.336;2023-05-13T10:48:11;2.25;;;1.60;;
5981;SDS011;3018;48.730;9.336;2023-05-13T10:50:38;1.40;;;1.40;;
5981;SDS011;3018;48.730;9.336;2023-05-13T10:53:07;2.17;;;2.00;;
5981;SDS011;3018;48.730;9.336;2023-05-13T10:55:39;4.93;;;1.77;;
5981;SDS011;3018;48.730;9.336;2023-05-13T10:58:09;2.30;;;2.20;;
5981;SDS011;3018;48.730;9.336;2023-05-13T11:00:36;1.80;;;1.70;;
5981;SDS011;3018;48.730;9.336;2023-05-13T11:03:11;1.75;;;1.75;;
5981;SDS011;3018;48.730;9.336;2023-05-13T11:05:38;3.42;;;3.22;;
5981;SDS011;3018;48.730;9.336;2023-05-13T11:08:04;3.20;;;2.13;;
5981;SDS011;3018;48.730;9.336;2023-05-13T11:10:31;2.10;;;2.00;;
5981;SDS011;3018;48.730;9.336;2023-05-13T11:15:49;2.13;;;2.03;;
5981;SDS011;3018;48.730;9.336;2023-05-13T11:18:17;2.85;;;1.98;;
5981;SDS011;3018;48.730;9.336;2023-05-13T11:20:44;1.67;;;1.60;;
5981;SDS011;3018;48.730;9.336;2023-05-13T11:23:15;1.75;;;1.67;;
5981;SDS011;3018;48.730;9.336;2023-05-13T11:25:42;1.85;;;1.75;;
5981;SDS011;3018;48.730;9.336;2023-05-13T11:28:08;1.85;;;1.75;;
5981;SDS011;3018;48.730;9.336;2023-05-13T11:30:34;1.40;;;1.40;;
5981;SDS011;3018;48.730;9.336;2023-05-13T11:33:00;1.70;;;1.70;;
5981;SDS011;3018;48.730;9.336;2023-05-13T11:35:33;1.40;;;1.40;;
5981;SDS011;3018;48.730;9.336;2023-05-13T11:38:00;1.83;;;1.83;;
5981;SDS011;3018;48.730;9.336;2023-05-13T11:40:27;1.83;;;1.70;;
5981;SDS011;3018;48.730;9.336;2023-05-13T11:42:53;1.77;;;1.30;;
5981;SDS011;3018;48.730;9.336;2023-05-13T11:45:21;2.05;;;1.30;;
5981;SDS011;3018;48.730;9.336;2023-05-13T11:47:47;1.45;;;1.45;;
5981;SDS011;3018;48.730;9.336;2023-05-13T11:50:17;1.45;;;1.45;;
5981;SDS011;3018;48.730;9.336;2023-05-13T11:52:45;1.33;;;1.33;;
5981;SDS011;3018;48.730;9.336;2023-05-13T11:55:22;2.13;;;1.50;;
5981;SDS011;3018;48.730;9.336;2023-05-13T11:57:49;1.67;;;1.20;;
5981;SDS011;3018;48.730;9.336;2023-05-13T12:00:15;2.40;;;1.27;;
5981;SDS011;3018;48.730;9.336;2023-05-13T12:02:42;1.70;;;1.70;;
5981;SDS011;3018;48.730;9.336;2023-05-13T12:05:10;1.60;;;1.50;;
5981;SDS011;3018;48.730;9.336;2023-05-13T12:07:37;1.10;;;1.10;;
5981;SDS011;3018;48.730;9.336;2023-05-13T12:10:05;1.48;;;1.48;;
5981;SDS011;3018;48.730;9.336;2023-05-13T12:12:32;1.40;;;1.40;;
5981;SDS011;3018;48.730;9.336;2023-05-13T12:15:01;1.70;;;1.60;;
5981;SDS011;3018;48.730;9.336;2023-05-13T12:17:29;1.45;;;1.45;;
5981;SDS011;3018;48.730;9.336;2023-05-13T12:20:05;2.53;;;1.50;;
5981;SDS011;3018;48.730;9.336;2023-05-13T12:22:31;1.73;;;1.73;;
5981;SDS011;3018;48.730;9.336;2023-05-13T12:24:58;1.60;;;1.60;;
5981;SDS011;3018;48.730;9.336;2023-05-13T12:27:27;2.22;;;1.67;;
5981;SDS011;3018;48.730;9.336;2023-05-13T12:29:53;1.80;;;1.80;;
5981;SDS011;3018;48.730;9.336;2023-05-13T12:32:19;1.75;;;1.75;;
5981;SDS011;3018;48.730;9.336;2023-05-13T12:34:47;1.95;;;1.88;;
5981;SDS011;3018;48.730;9.336;2023-05-13T12:37:14;1.88;;;1.88;;
5981;SDS011;3018;48.730;9.336;2023-05-13T12:39:40;2.53;;;1.80;;
5981;SDS011;3018;48.730;9.336;2023-05-13T12:42:12;1.80;;;1.80;;
5981;SDS011;3018;48.730;9.336;2023-05-13T12:44:41;1.80;;;1.80;;
5981;SDS011;3018;48.730;9.336;2023-05-13T12:47:07;1.90;;;1.90;;
5981;SDS011;3018;48.730;9.336;2023-05-13T12:49:34;2.00;;;2.00;;
5981;SDS011;3018;48.730;9.336;2023-05-13T12:52:00;2.47;;;2.05;;
5981;SDS011;3018;48.730;9.336;2023-05-13T12:54:28;1.80;;;1.80;;
5981;SDS011;3018;48.730;9.336;2023-05-13T12:56:55;2.08;;;1.77;;
5981;SDS011;3018;48.730;9.336;2023-05-13T12:59:21;1.85;;;1.75;;
5981;SDS011;3018;48.730;9.336;2023-05-13T13:01:48;1.90;;;1.80;;
5981;SDS011;3018;48.730;9.336;2023-05-13T13:04:15;1.95;;;1.85;;
5981;SDS011;3018;48.730;9.336;2023-05-13T13:06:42;2.13;;;2.08;;
5981;SDS011;3018;48.730;9.336;2023-05-13T13:09:09;1.98;;;1.98;;
5981;SDS011;3018;48.730;9.336;2023-05-13T13:11:35;1.67;;;1.67;;
5981;SDS011;3018;48.730;9.336;2023-05-13T13:14:01;1.80;;;1.80;;
5981;SDS011;3018;48.730;9.336;2023-05-13T13:16:27;1.77;;;1.77;;
5981;SDS011;3018;48.730;9.336;2023-05-13T13:18:55;1.92;;;1.90;;
5981;SDS011;3018;48.730;9.336;2023-05-13T13:21:23;1.92;;;1.83;;
5981;SDS011;3018;48.730;9.336;2023-05-13T13:23:49;1.70;;;1.70;;
5981;SDS011;3018;48.730;9.336;2023-05-13T13:26:15;2.45;;;2.25;;
5981;SDS011;3018;48.730;9.336;2023-05-13T13:28:41;2.10;;;2.00;;
5981;SDS011;3018;48.730;9.336;2023-05-13T13:31:08;2.20;;;1.98;;
5981;SDS011;3018;48.730;9.336;2023-05-13T13:33:35;2.42;;;2.40;;
5981;SDS011;3018;48.730;9.336;2023-05-13T13:36:03;2.20;;;2.08;;
5981;SDS011;3018;48.730;9.336;2023-05-13T13:38:30;2.17;;;1.80;;
5981;SDS011;3018;48.730;9.336;2023-05-13T13:40:56;1.70;;;1.60;;
5981;SDS011;3018;48.730;9.336;2023-05-13T13:43:22;2.97;;;1.90;;
5981;SDS011;3018;48.730;9.336;2023-05-13T13:45:48;1.80;;;1.70;;
5981;SDS011;3018;48.730;9.336;2023-05-13T13:48:14;2.30;;;2.20;;
5981;SDS011;3018;48.730;9.336;2023-05-13T13:50:41;2.00;;;2.00;;
5981;SDS011;3018;48.730;9.336;2023-05-13T13:53:08;2.50;;;2.40;;
5981;SDS011;3018;48.730;9.336;2023-05-13T13:55:35;2.28;;;2.17;;
5981;SDS011;3018;48.730;9.336;2023-05-13T13:58:01;2.95;;;2.78;;
5981;SDS011;3018;48.730;9.336;2023-05-13T14:00:27;2.92;;;2.83;;
5981;SDS011;3018;48.730;9.336;2023-05-13T14:02:53;2.97;;;2.88;;
5981;SDS011;3018;48.730;9.336;2023-05-13T14:05:20;2.90;;;2.70;;
5981;SDS011;3018;48.730;9.336;2023-05-13T14:07:46;2.95;;;2.85;;
5981;SDS011;3018;48.730;9.336;2023-05-13T14:10:19;3.60;;;3.40;;
5981;SDS011;3018;48.730;9.336;2023-05-13T14:12:45;3.33;;;3.13;;
5981;SDS011;3018;48.730;9.336;2023-05-13T14:15:11;2.80;;;2.65;;
5981;SDS011;3018;48.730;9.336;2023-05-13T14:17:37;3.80;;;2.20;;
5981;SDS011;3018;48.730;9.336;2023-05-13T14:20:04;2.85;;;2.65;;
5981;SDS011;3018;48.730;9.336;2023-05-13T14:22:31;2.58;;;2.47;;
5981;SDS011;3018;48.730;9.336;2023-05-13T14:24:57;2.70;;;2.60;;
5981;SDS011;3018;48.730;9.336;2023-05-13T14:27:25;3.08;;;2.70;;
5981;SDS011;3018;48.730;9.336;2023-05-13T14:29:51;2.97;;;2.88;;
5981;SDS011;3018;48.730;9.336;2023-05-13T14:32:17;4.13;;;3.15;;
5981;SDS011;3018;48.730;9.336;2023-05-13T14:34:44;3.30;;;3.10;;
5981;SDS011;3018;48.730;9.336;2023-05-13T14:37:10;4.88;;;3.30;;
5981;SDS011;3018;48.730;9.336;2023-05-13T14:39:36;4.13;;;3.30;;
5981;SDS011;3018;48.730;9.336;2023-05-13T14:42:03;3.85;;;3.45;;
5981;SDS011;3018;48.730;9.336;2023-05-13T14:44:30;3.78;;;3.47;;
5981;SDS011;3018;48.730;9.336;2023-05-13T14:46:57;4.57;;;3.53;;
5981;SDS011;3018;48.730;9.336;2023-05-13T14:49:23;3.63;;;3.13;;
5981;SDS011;3018;48.730;9.336;2023-05-13T14:51:50;3.42;;;3.22;;
5981;SDS011;3018;48.730;9.336;2023-05-13T14:54:16;3.90;;;3.42;;
5981;SDS011;3018;48.730;9.336;2023-05-13T14:56:42;5.30;;;3.65;;
5981;SDS011;3018;48.730;9.336;2023-05-13T14:59:08;3.45;;;3.25;;
5981;SDS011;3018;48.730;9.336;2023-05-13T15:01:36;3.55;;;3.25;;
5981;SDS011;3018;48.730;9.336;2023-05-13T15:04:02;3.17;;;2.97;;
5981;SDS011;3018;48.730;9.336;2023-05-13T15:06:29;3.55;;;3.38;;
5981;SDS011;3018;48.730;9.336;2023-05-13T15:08:55;3.00;;;2.90;;
5981;SDS011;3018;48.730;9.336;2023-05-13T15:11:22;3.17;;;2.85;;
5981;SDS011;3018;48.730;9.336;2023-05-13T15:13:48;3.30;;;3.20;;
5981;SDS011;3018;48.730;9.336;2023-05-13T15:16:14;3.30;;;3.10;;